Time;durP1;ratioP1;P1;durP2;ratioP2;P2;SDS_P1;SDS_P2;PMS_P1;PMS_P2;Temp;Humidity;BMP_temperature;BMP_pressure;BME280_temperature;BME280_humidity;BME280_pressure;Samples;Min_cycle;Max_cycle;Signal;HPM_P1;HPM_P2
2023/09/16 00:04:23;;;;;;;;;;;;;;;20.56;62.13;99631.13;10409308;28;1977;-74
2023/09/16 00:09:19;;;;;;;;;;;;;;;20.55;62.15;99626.78;10409296;28;845;-74
2023/09/16 00:14:18;;;;;;;;;;;;;;;20.55;62.02;99621.50;10409116;28;885;-74
2023/09/16 00:19:14;;;;;;;;;;;;;;;20.54;62.00;99625.94;10408713;28;814;-74
2023/09/16 00:24:11;;;;;;;;;;;;;;;20.55;62.24;99624.16;10408717;28;1889;-74
2023/09/16 00:29:07;;;;;;;;;;;;;;;20.54;62.07;99625.06;10408063;28;1297;-74
2023/09/16 00:34:03;;;;;;;;;;;;;;;20.52;62.16;99624.28;10407056;28;1106;-74
2023/09/16 00:38:59;;;;;;;;;;;;;;;20.52;62.17;99624.28;10407859;28;913;-74
2023/09/16 00:43:55;;;;;;;;;;;;;;;20.51;62.14;99617.28;10407688;28;1914;-74
2023/09/16 00:48:51;;;;;;;;;;;;;;;20.50;62.12;99608.47;10407522;28;879;-74
2023/09/16 00:53:46;;;;;;;;;;;;;;;20.50;62.19;99615.56;10408218;28;783;-74
2023/09/16 00:58:42;;;;;;;;;;;;;;;20.49;62.15;99613.88;10407383;28;1007;-74
2023/09/16 01:03:39;;;;;;;;;;;;;;;20.48;62.14;99601.56;10408219;28;1962;-74
2023/09/16 01:08:35;;;;;;;;;;;;;;;20.47;62.06;99603.38;10407272;28;821;-74
2023/09/16 01:13:31;;;;;;;;;;;;;;;20.47;62.13;99595.44;10407812;28;903;-74
2023/09/16 01:18:27;;;;;;;;;;;;;;;20.46;62.04;99592.84;10407237;28;1137;-74
2023/09/16 01:23:23;;;;;;;;;;;;;;;20.47;62.18;99581.34;10407616;28;1965;-74
2023/09/16 01:28:19;;;;;;;;;;;;;;;20.45;62.17;99584.06;10406591;28;1179;-74
2023/09/16 01:33:16;;;;;;;;;;;;;;;20.44;62.36;99587.66;10406829;28;961;-74
2023/09/16 01:38:13;;;;;;;;;;;;;;;20.44;62.32;99581.53;10406728;28;882;-74
2023/09/16 01:43:08;;;;;;;;;;;;;;;20.43;62.27;99588.59;10406503;28;1961;-74
2023/09/16 01:48:05;;;;;;;;;;;;;;;20.43;62.13;99587.72;10411099;28;850;-74
2023/09/16 01:53:01;;;;;;;;;;;;;;;20.43;62.19;99582.44;10414584;28;847;-74
2023/09/16 01:57:57;;;;;;;;;;;;;;;20.43;62.38;99577.16;10413648;28;898;-74
2023/09/16 02:02:53;;;;;;;;;;;;;;;20.41;62.24;99573.72;10413569;28;1948;-74
2023/09/16 02:07:49;;;;;;;;;;;;;;;20.41;62.22;99576.38;10413366;28;1262;-74
2023/09/16 02:12:45;;;;;;;;;;;;;;;20.40;62.28;99575.53;10413210;28;782;-74
2023/09/16 02:17:41;;;;;;;;;;;;;;;20.39;62.26;99571.19;10413112;28;867;-74
2023/09/16 02:22:37;;;;;;;;;;;;;;;20.39;62.22;99554.44;10412258;28;865;-74
2023/09/16 02:27:32;;;;;;;;;;;;;;;20.38;62.23;99564.16;10412410;28;1898;-75
2023/09/16 02:32:29;;;;;;;;;;;;;;;20.37;62.33;99554.53;10413301;28;881;-74
2023/09/16 02:37:25;;;;;;;;;;;;;;;20.36;62.22;99558.13;10412414;28;866;-74
2023/09/16 02:42:21;;;;;;;;;;;;;;;20.35;62.36;99559.91;10412628;28;916;-74
2023/09/16 02:47:17;;;;;;;;;;;;;;;20.35;62.44;99559.03;10411889;28;1905;-74
2023/09/16 02:52:15;;;;;;;;;;;;;;;20.35;62.31;99559.03;10411603;28;961;-74
2023/09/16 02:57:11;;;;;;;;;;;;;;;20.34;62.37;99555.56;10411556;28;849;-74
2023/09/16 03:02:07;;;;;;;;;;;;;;;20.34;62.36;99547.63;10411896;28;909;-74
2023/09/16 03:07:03;;;;;;;;;;;;;;;20.32;62.35;99544.19;10410955;28;1881;-74
2023/09/16 03:11:58;;;;;;;;;;;;;;;20.32;62.33;99541.53;10410865;28;1011;-74
2023/09/16 03:16:55;;;;;;;;;;;;;;;20.32;62.38;99546.00;10411220;28;786;-74
2023/09/16 03:21:51;;;;;;;;;;;;;;;20.31;62.32;99536.34;10410682;28;864;-74
2023/09/16 03:26:48;;;;;;;;;;;;;;;20.29;62.39;99538.22;10410661;28;1902;-74
2023/09/16 03:31:44;;;;;;;;;;;;;;;20.29;62.29;99539.06;10409900;28;1422;-74
2023/09/16 03:36:39;;;;;;;;;;;;;;;20.28;62.43;99529.44;10410167;28;888;-74
2023/09/16 03:41:37;;;;;;;;;;;;;;;20.27;62.43;99530.38;10392128;28;1238;-74
2023/09/16 03:46:33;;;;;;;;;;;;;;;20.27;62.54;99526.88;10409961;28;1967;-74
2023/09/16 03:51:29;;;;;;;;;;;;;;;20.26;62.51;99526.03;10409547;28;813;-74
2023/09/16 03:56:25;;;;;;;;;;;;;;;20.25;62.47;99529.63;10409358;28;775;-74
2023/09/16 04:01:21;;;;;;;;;;;;;;;20.24;62.47;99517.31;10409698;28;873;-74
2023/09/16 04:06:17;;;;;;;;;;;;;;;20.23;62.50;99518.28;10408151;28;1949;-74
2023/09/16 04:11:13;;;;;;;;;;;;;;;20.23;62.34;99514.78;10407947;28;960;-74
2023/09/16 04:16:09;;;;;;;;;;;;;;;20.22;62.40;99515.69;10408429;28;872;-75
2023/09/16 04:21:06;;;;;;;;;;;;;;;20.21;62.46;99522.78;10408885;28;970;-74
2023/09/16 04:26:03;;;;;;;;;;;;;;;20.20;62.46;99518.44;10409172;28;1957;-74
2023/09/16 04:30:59;;;;;;;;;;;;;;;20.22;62.44;99524.47;10408177;28;1367;-74
2023/09/16 04:35:56;;;;;;;;;;;;;;;20.27;62.18;99518.94;10407922;28;833;-74
2023/09/16 04:40:52;;;;;;;;;;;;;;;20.30;62.24;99519.63;10407842;28;894;-74
2023/09/16 04:45:49;;;;;;;;;;;;;;;20.33;62.14;99510.63;10407947;28;1874;-72
2023/09/16 04:50:47;;;;;;;;;;;;;;;20.34;62.21;99507.91;10408254;28;971;-73
2023/09/16 04:55:43;;;;;;;;;;;;;;;20.38;62.00;99511.22;10407501;28;869;-74
2023/09/16 05:00:39;;;;;;;;;;;;;;;20.40;62.13;99503.19;10407621;28;914;-74
2023/09/16 05:05:35;;;;;;;;;;;;;;;20.43;61.95;99509.16;10407261;28;1890;-74
2023/09/16 05:10:31;;;;;;;;;;;;;;;20.44;61.99;99515.34;10407351;28;1115;-72
2023/09/16 05:15:27;;;;;;;;;;;;;;;20.44;62.06;99510.03;10407263;28;850;-74
2023/09/16 05:20:23;;;;;;;;;;;;;;;20.43;62.00;99511.81;10408700;28;774;-70
2023/09/16 05:25:19;;;;;;;;;;;;;;;20.38;62.04;99513.03;10416117;28;1862;-70
2023/09/16 05:30:15;;;;;;;;;;;;;;;20.36;62.03;99519.28;10443963;27;1316;-68
2023/09/16 05:35:11;;;;;;;;;;;;;;;20.35;62.13;99511.41;10456560;27;901;-68
2023/09/16 05:40:07;;;;;;;;;;;;;;;20.34;62.17;99507.91;10456571;27;985;-70
2023/09/16 05:45:03;;;;;;;;;;;;;;;20.32;62.11;99512.44;10456182;27;1910;-70
2023/09/16 05:49:59;;;;;;;;;;;;;;;20.31;62.32;99508.09;10455449;27;970;-70
2023/09/16 05:54:54;;;;;;;;;;;;;;;20.30;62.17;99511.69;10455204;27;979;-70
2023/09/16 05:59:50;;;;;;;;;;;;;;;20.31;62.29;99504.59;10456258;27;853;-70
2023/09/16 06:04:46;;;;;;;;;;;;;;;20.34;62.33;99515.84;10455365;27;1902;-68
2023/09/16 06:09:42;;;;;;;;;;;;;;;20.33;62.42;99508.88;10455196;27;850;-69
2023/09/16 06:14:39;;;;;;;;;;;;;;;20.34;62.56;99507.06;10455053;27;953;-69
2023/09/16 06:19:35;;;;;;;;;;;;;;;20.32;62.58;99506.28;10454729;27;877;-70
2023/09/16 06:24:31;;;;;;;;;;;;;;;20.31;62.57;99509.88;10454484;27;1968;-70
2023/09/16 06:29:27;;;;;;;;;;;;;;;20.29;62.56;99509.97;10454382;27;1516;-69
2023/09/16 06:34:23;;;;;;;;;;;;;;;20.31;62.57;99515.19;10452955;27;865;-69
2023/09/16 06:39:18;;;;;;;;;;;;;;;20.30;62.45;99516.97;10453650;27;1131;-70
2023/09/16 06:44:14;;;;;;;;;;;;;;;20.30;62.62;99518.75;10453798;27;1906;-69
2023/09/16 06:49:10;;;;;;;;;;;;;;;20.30;62.64;99524.03;10454334;27;868;-70
2023/09/16 06:54:06;;;;;;;;;;;;;;;20.30;62.69;99513.47;10454014;27;1019;-70
2023/09/16 06:59:02;;;;;;;;;;;;;;;20.31;62.66;99526.63;10453376;27;797;-70
2023/09/16 07:03:58;;;;;;;;;;;;;;;20.33;62.81;99523.88;10452966;27;1901;-69
2023/09/16 07:08:54;;;;;;;;;;;;;;;20.33;62.76;99516.81;10452939;27;944;-69
2023/09/16 07:13:50;;;;;;;;;;;;;;;20.34;62.80;99518.50;10453380;27;797;-69
2023/09/16 07:18:45;;;;;;;;;;;;;;;20.36;62.63;99521.91;10451840;27;892;-76
2023/09/16 07:23:42;;;;;;;;;;;;;;;20.40;62.47;99521.72;10452221;27;1972;-77
2023/09/16 07:28:38;;;;;;;;;;;;;;;20.40;62.43;99524.38;10451918;27;1185;-77
2023/09/16 07:33:34;;;;;;;;;;;;;;;20.41;62.55;99520.78;10452028;27;880;-77
2023/09/16 07:38:30;;;;;;;;;;;;;;;20.41;62.61;99521.66;10451609;27;860;-74
2023/09/16 07:43:26;;;;;;;;;;;;;;;20.41;62.36;99520.78;10449936;27;1964;-74
2023/09/16 09:54:12;;;;;;;;;;;;;;;20.13;63.17;99548.84;10080947;22;2234;-75
2023/09/16 09:59:08;;;;;;;;;;;;;;;20.11;63.32;99540.13;10330513;28;880;-76
2023/09/16 10:04:04;;;;;;;;;;;;;;;20.11;63.14;99548.06;10330886;28;1910;-76
2023/09/16 10:09:00;;;;;;;;;;;;;;;20.09;62.81;99542.00;10324179;28;1405;-74
2023/09/16 10:13:56;;;;;;;;;;;;;;;20.08;63.17;99545.59;10314232;28;1525;-74
2023/09/16 10:18:51;;;;;;;;;;;;;;;20.08;63.34;99548.25;10302883;28;1602;-78
2023/09/16 10:23:47;;;;;;;;;;;;;;;20.08;63.25;99545.59;10324634;28;1894;-78
2023/09/16 10:28:43;;;;;;;;;;;;;;;20.06;63.31;99550.09;10330237;28;876;-73
2023/09/16 11:14:26;;;;;;;;;;;;;;;20.14;63.51;99542.59;8393970;22;2969;-72
2023/09/16 11:39:55;;;;;;;;;;;;;;;20.09;63.58;99526.13;10506729;22;2181;-75
2023/09/16 11:44:50;;;;;;;;;;;;;;;20.07;63.80;99528.03;10235680;28;1906;-74
2023/09/16 11:49:48;;;;;;;;;;;;;;;20.06;64.00;99519.22;10217853;28;877;-75
2023/09/16 11:54:44;;;;;;;;;;;;;;;20.06;63.82;99515.72;10245473;28;940;-74
2023/09/16 11:59:40;;;;;;;;;;;;;;;20.06;63.64;99508.63;10245438;28;1358;-75
2023/09/16 12:04:36;;;;;;;;;;;;;;;20.04;63.51;99507.88;10245224;28;1961;-74
2023/09/16 12:09:33;;;;;;;;;;;;;;;20.04;63.51;99505.22;10245542;28;831;-73
2023/09/16 12:14:28;;;;;;;;;;;;;;;20.03;63.41;99500.00;10244777;28;894;-72
2023/09/16 12:19:24;;;;;;;;;;;;;;;20.03;63.56;99492.06;10244718;28;806;-73
2023/09/16 12:24:20;;;;;;;;;;;;;;;20.03;63.52;99495.56;10244367;28;1890;-73
2023/09/16 12:29:16;;;;;;;;;;;;;;;20.04;63.51;99499.94;10243674;28;1382;-72
2023/09/16 12:34:12;;;;;;;;;;;;;;;20.05;63.57;99498.16;10232816;28;1366;-68
2023/09/16 12:39:08;;;;;;;;;;;;;;;20.10;63.85;99488.16;10203723;28;1335;-69
2023/09/16 12:44:04;;;;;;;;;;;;;;;20.11;63.93;99485.41;10240929;28;1968;-72
2023/09/16 12:49:00;;;;;;;;;;;;;;;20.12;64.25;99487.13;10225347;28;1330;-73
2023/09/16 12:53:56;;;;;;;;;;;;;;;20.14;64.28;99484.38;10202884;28;883;-69
2023/09/16 12:58:51;;;;;;;;;;;;;;;20.13;64.33;99480.88;10224008;28;850;-69
2023/09/16 13:03:47;;;;;;;;;;;;;;;20.16;64.47;99482.50;10243553;28;1890;-69
2023/09/16 13:08:43;;;;;;;;;;;;;;;20.15;64.75;99483.47;10238952;28;1146;-69
2023/09/16 13:13:40;;;;;;;;;;;;;;;20.16;64.47;99479.84;10205833;28;1118;-70
2023/09/16 13:18:36;;;;;;;;;;;;;;;20.15;64.60;99488.75;10243100;28;858;-69
2023/09/16 13:23:33;;;;;;;;;;;;;;;20.16;64.55;99481.66;10242991;28;1953;-69
2023/09/16 13:28:29;;;;;;;;;;;;;;;20.19;64.72;99484.97;10241059;28;1436;-69
2023/09/16 13:33:25;;;;;;;;;;;;;;;20.18;64.63;99471.84;10242854;28;1299;-69
2023/09/16 13:38:21;;;;;;;;;;;;;;;20.15;64.47;99467.56;10241401;28;1604;-70
2023/09/16 13:43:18;;;;;;;;;;;;;;;20.20;64.57;99470.81;10244053;28;1910;-69
2023/09/16 13:48:14;;;;;;;;;;;;;;;20.20;64.62;99473.47;10246956;28;1334;-69
2023/09/16 13:53:11;;;;;;;;;;;;;;;20.21;64.81;99472.50;10249916;28;1283;-68
2023/09/16 13:58:07;;;;;;;;;;;;;;;20.21;64.63;99472.50;10250539;28;992;-67
2023/09/16 14:03:03;;;;;;;;;;;;;;;20.20;64.37;99469.94;10248685;28;1085;-67
2023/09/16 14:07:59;;;;;;;;;;;;;;;20.19;64.31;99470.88;10247311;28;2028;-67
2023/09/16 14:12:55;;;;;;;;;;;;;;;20.18;64.31;99471.84;10246088;28;1404;-67
2023/09/16 14:17:50;;;;;;;;;;;;;;;20.19;64.21;99466.44;10234676;28;1295;-68
2023/09/16 14:22:47;;;;;;;;;;;;;;;20.23;64.53;99465.34;10227241;28;1329;-67
2023/09/16 14:27:42;;;;;;;;;;;;;;;20.26;64.65;99473.09;10247806;28;1961;-67
2023/09/16 14:32:38;;;;;;;;;;;;;;;20.23;64.56;99478.56;10248822;28;987;-69
2023/09/16 14:37:34;;;;;;;;;;;;;;;20.23;64.09;99475.91;10248357;28;1104;-69
2023/09/16 14:42:30;;;;;;;;;;;;;;;20.22;64.25;99473.34;10246627;28;1409;-69
2023/09/16 14:47:26;;;;;;;;;;;;;;;20.23;64.18;99470.63;10217683;28;1914;-70
2023/09/16 14:52:22;;;;;;;;;;;;;;;20.22;64.04;99474.19;10206922;28;1119;-69
2023/09/16 14:57:18;;;;;;;;;;;;;;;20.22;64.17;99471.56;10223612;28;1164;-69
2023/09/16 15:02:14;;;;;;;;;;;;;;;20.22;64.17;99474.19;10246765;28;1333;-69
2023/09/16 15:07:11;;;;;;;;;;;;;;;20.24;64.27;99477.63;10246828;28;1898;-69
2023/09/16 15:12:07;;;;;;;;;;;;;;;20.27;64.25;99469.50;10227666;28;1389;-70
2023/09/16 15:17:03;;;;;;;;;;;;;;;20.30;64.21;99473.75;10246914;28;873;-70
2023/09/16 15:21:59;;;;;;;;;;;;;;;20.30;64.27;99471.09;10220945;28;1138;-70
2023/09/16 15:26:57;;;;;;;;;;;;;;;20.26;64.28;99465.16;10206858;28;1894;-70
2023/09/16 15:31:53;;;;;;;;;;;;;;;20.26;64.42;99459.84;10206381;28;1040;-70
2023/09/16 15:36:48;;;;;;;;;;;;;;;20.29;64.57;99477.34;10205244;28;1257;-70
2023/09/16 15:41:44;;;;;;;;;;;;;;;20.28;64.68;99479.16;10205715;28;924;-70
2023/09/16 15:46:40;;;;;;;;;;;;;;;20.29;64.74;99475.56;10204966;28;1968;-70
2023/09/16 15:51:36;;;;;;;;;;;;;;;20.28;64.42;99479.16;10204136;28;1216;-70
2023/09/16 15:56:32;;;;;;;;;;;;;;;20.29;64.69;99480.84;10205613;28;874;-69
2023/09/16 16:01:28;;;;;;;;;;;;;;;20.30;64.62;99479.06;10204912;28;937;-69
2023/09/16 16:06:24;;;;;;;;;;;;;;;20.29;64.50;99478.19;10204158;28;1906;-69
2023/09/16 16:11:19;;;;;;;;;;;;;;;20.30;64.42;99481.69;10204059;28;833;-69
2023/09/16 16:16:15;;;;;;;;;;;;;;;20.30;64.49;99485.22;10205572;28;866;-69
2023/09/16 16:21:14;;;;;;;;;;;;;;;20.30;64.44;99487.88;10204233;28;888;-69
2023/09/16 16:26:10;;;;;;;;;;;;;;;20.31;64.42;99488.72;10204380;28;1953;-69
2023/09/16 16:31:06;;;;;;;;;;;;;;;20.32;64.54;99485.97;10204190;28;937;-68
2023/09/16 16:36:03;;;;;;;;;;;;;;;20.33;64.30;99498.28;10204506;28;884;-69
2023/09/16 16:40:58;;;;;;;;;;;;;;;20.33;64.53;99492.09;10204170;28;1249;-69
2023/09/16 16:45:54;;;;;;;;;;;;;;;20.35;64.53;99501.66;10203237;28;1914;-69
2023/09/16 16:50:50;;;;;;;;;;;;;;;20.35;64.59;99491.06;10203834;28;822;-69
2023/09/16 16:55:46;;;;;;;;;;;;;;;20.36;64.69;99491.94;10204845;28;829;-69
2023/09/16 17:00:42;;;;;;;;;;;;;;;20.39;64.58;99501.50;10203160;28;861;-70
2023/09/16 17:05:38;;;;;;;;;;;;;;;20.36;64.65;99494.59;10203204;28;1898;-70
2023/09/16 17:10:34;;;;;;;;;;;;;;;20.38;64.70;99483.91;10203378;28;830;-69
2023/09/16 17:15:30;;;;;;;;;;;;;;;20.38;64.64;99495.34;10203497;28;921;-70
2023/09/16 17:20:26;;;;;;;;;;;;;;;20.38;64.88;99499.78;10211800;28;851;-69
2023/09/16 17:25:22;;;;;;;;;;;;;;;20.39;64.91;99506.81;10211093;28;1949;-69
2023/09/16 17:30:18;;;;;;;;;;;;;;;20.39;64.73;99505.00;10210143;28;878;-70
2023/09/16 17:35:14;;;;;;;;;;;;;;;20.40;64.69;99497.91;10210719;28;896;-69
2023/09/16 17:40:10;;;;;;;;;;;;;;;20.39;64.85;99505.00;10192393;28;1194;-70
2023/09/16 17:45:06;;;;;;;;;;;;;;;20.40;64.75;99516.44;10209855;28;1966;-69
2023/09/16 17:50:02;;;;;;;;;;;;;;;20.40;64.61;99519.94;10210163;28;899;-70
2023/09/16 17:54:58;;;;;;;;;;;;;;;20.40;64.67;99532.31;10210378;28;814;-69
2023/09/16 17:59:53;;;;;;;;;;;;;;;20.41;64.61;99536.66;10209782;28;960;-69
2023/09/16 18:04:49;;;;;;;;;;;;;;;20.40;64.68;99538.47;10209324;28;1957;-67
2023/09/16 18:09:45;;;;;;;;;;;;;;;20.41;64.69;99539.31;10209414;28;743;-67
2023/09/16 18:14:41;;;;;;;;;;;;;;;20.42;64.64;99544.53;10209986;28;927;-70
2023/09/16 18:19:37;;;;;;;;;;;;;;;20.43;64.56;99548.03;10209584;28;988;-69
2023/09/16 18:24:35;;;;;;;;;;;;;;;20.45;64.64;99554.09;10208731;28;1965;-69
2023/09/16 18:29:31;;;;;;;;;;;;;;;20.43;64.50;99546.22;10207194;28;814;-69
2023/09/16 18:34:27;;;;;;;;;;;;;;;20.45;64.29;99562.03;10208366;28;812;-70
2023/09/16 18:39:23;;;;;;;;;;;;;;;20.45;64.24;99560.22;10208254;28;1243;-70
2023/09/16 18:44:19;;;;;;;;;;;;;;;20.46;64.36;99567.25;10208783;28;1906;-70
2023/09/16 18:49:15;;;;;;;;;;;;;;;20.46;64.14;99580.50;10208436;28;807;-69
2023/09/16 18:54:11;;;;;;;;;;;;;;;20.47;64.39;99582.19;10207980;28;765;-70
2023/09/16 18:59:07;;;;;;;;;;;;;;;20.48;64.24;99575.94;10206908;28;1247;-70
2023/09/16 19:04:03;;;;;;;;;;;;;;;20.48;64.32;99581.22;10207750;28;1894;-70
2023/09/16 19:08:59;;;;;;;;;;;;;;;20.49;64.38;99582.13;10207828;28;900;-70
2023/09/16 19:13:55;;;;;;;;;;;;;;;20.50;64.51;99586.44;10206980;28;845;-69
2023/09/16 19:18:51;;;;;;;;;;;;;;;20.50;64.46;99589.94;10207433;28;874;-69
2023/09/16 19:23:47;;;;;;;;;;;;;;;20.51;64.71;99596.09;10207091;28;1894;-70
2023/09/16 19:28:43;;;;;;;;;;;;;;;20.50;64.59;99592.59;10207178;28;807;-70
2023/09/16 19:33:39;;;;;;;;;;;;;;;20.52;64.66;99592.53;10205517;28;870;-70
2023/09/16 19:38:38;;;;;;;;;;;;;;;20.52;64.71;99587.22;10206007;28;1356;-69
2023/09/16 19:43:34;;;;;;;;;;;;;;;20.53;65.03;99580.97;10205751;28;1914;-69
2023/09/16 19:48:30;;;;;;;;;;;;;;;20.53;65.17;99573.03;10205857;28;860;-69
2023/09/16 19:53:26;;;;;;;;;;;;;;;20.54;65.15;99574.75;10206100;28;845;-76
2023/09/16 19:58:22;;;;;;;;;;;;;;;20.56;65.14;99586.97;10205942;28;813;-84
2023/09/16 20:03:18;;;;;;;;;;;;;;;20.58;64.93;99589.53;10205198;28;933;-84
2023/09/16 20:08:16;;;;;;;;;;;;;;;20.59;64.73;99585.94;10204388;28;1882;-82
2023/09/16 20:13:12;;;;;;;;;;;;;;;20.60;64.90;99582.38;10205119;28;880;-74
2023/09/16 20:18:07;;;;;;;;;;;;;;;20.60;64.76;99579.72;10205252;28;834;-74
2023/09/16 20:23:03;;;;;;;;;;;;;;;20.60;64.73;99574.44;10203989;28;1084;-74
2023/09/16 20:28:01;;;;;;;;;;;;;;;20.60;64.67;99577.06;10204319;28;1890;-74
2023/09/16 20:32:56;;;;;;;;;;;;;;;20.61;64.55;99569.97;10204904;28;864;-74
2023/09/16 20:37:52;;;;;;;;;;;;;;;20.61;64.70;99572.63;10204520;28;1294;-74
2023/09/16 20:42:48;;;;;;;;;;;;;;;20.61;64.51;99570.81;10204055;28;865;-75
2023/09/16 20:47:44;;;;;;;;;;;;;;;20.62;64.43;99569.91;10203767;28;2020;-74
2023/09/16 20:52:40;;;;;;;;;;;;;;;20.63;64.51;99573.41;10211346;28;831;-74
2023/09/16 20:57:36;;;;;;;;;;;;;;;20.62;64.42;99571.66;10217026;28;920;-74
2023/09/16 21:02:32;;;;;;;;;;;;;;;20.63;64.51;99568.94;10217212;28;867;-74
2023/09/16 21:07:28;;;;;;;;;;;;;;;20.63;64.33;99568.94;10216299;28;1957;-74
2023/09/16 21:12:24;;;;;;;;;;;;;;;20.62;64.30;99572.56;10216835;28;863;-74
2023/09/16 21:17:20;;;;;;;;;;;;;;;20.63;64.22;99568.94;10216667;28;1426;-74
2023/09/16 21:22:15;;;;;;;;;;;;;;;20.63;64.33;99563.66;10216621;28;877;-74
2023/09/16 21:27:11;;;;;;;;;;;;;;;20.63;64.06;99568.94;10216518;28;1956;-74
2023/09/16 21:32:07;;;;;;;;;;;;;;;20.63;64.17;99561.00;10216378;28;785;-74
2023/09/16 21:37:03;;;;;;;;;;;;;;;20.62;64.27;99556.66;10216178;28;1268;-74
2023/09/16 21:42:02;;;;;;;;;;;;;;;20.62;64.07;99556.66;10216202;28;1112;-74
2023/09/16 21:46:58;;;;;;;;;;;;;;;20.63;63.96;99563.66;10216272;28;1977;-74
2023/09/16 21:51:54;;;;;;;;;;;;;;;20.64;64.08;99561.84;10216870;28;918;-74
2023/09/16 21:56:50;;;;;;;;;;;;;;;20.63;64.07;99552.22;10216617;28;858;-74
2023/09/16 22:01:46;;;;;;;;;;;;;;;20.63;63.93;99553.06;10215419;28;871;-74
2023/09/16 22:06:42;;;;;;;;;;;;;;;20.64;64.07;99543.31;10208531;28;1961;-74
2023/09/16 22:11:38;;;;;;;;;;;;;;;20.64;63.85;99549.47;10210006;28;785;-74
2023/09/16 22:16:34;;;;;;;;;;;;;;;20.64;63.91;99546.81;10209213;28;810;-74
2023/09/16 22:21:29;;;;;;;;;;;;;;;20.64;63.97;99544.16;10209415;28;884;-74
2023/09/16 22:26:25;;;;;;;;;;;;;;;20.65;64.05;99540.59;10208641;28;1969;-74
2023/09/16 22:31:21;;;;;;;;;;;;;;;20.64;63.85;99535.38;10208596;28;867;-74
2023/09/16 22:36:17;;;;;;;;;;;;;;;20.65;63.96;99537.94;10208994;28;799;-74
2023/09/16 22:41:13;;;;;;;;;;;;;;;20.65;64.01;99535.28;10208623;28;1348;-74
2023/09/16 22:46:09;;;;;;;;;;;;;;;20.65;63.97;99530.00;10208047;28;1973;-74
2023/09/16 22:51:05;;;;;;;;;;;;;;;20.65;63.92;99531.78;10207332;28;815;-73
2023/09/16 22:56:03;;;;;;;;;;;;;;;20.65;63.78;99529.16;10208294;28;833;-74
2023/09/16 23:00:59;;;;;;;;;;;;;;;20.64;63.87;99520.31;10207474;28;868;-74
2023/09/16 23:05:55;;;;;;;;;;;;;;;20.65;63.86;99519.41;10207863;28;1902;-74
2023/09/16 23:10:51;;;;;;;;;;;;;;;20.65;63.86;99513.25;10208340;28;887;-73
2023/09/16 23:15:46;;;;;;;;;;;;;;;20.65;63.75;99511.47;10206025;28;1109;-75
2023/09/16 23:20:42;;;;;;;;;;;;;;;20.64;63.87;99504.44;10206761;28;991;-74
2023/09/16 23:25:38;;;;;;;;;;;;;;;20.65;63.77;99503.50;10206423;28;1894;-74
2023/09/16 23:30:34;;;;;;;;;;;;;;;20.65;63.77;99506.16;10206558;28;885;-74
2023/09/16 23:35:30;;;;;;;;;;;;;;;20.65;63.77;99503.50;10206796;28;814;-74
2023/09/16 23:40:26;;;;;;;;;;;;;;;20.63;63.85;99497.44;10206825;28;1432;-74
2023/09/16 23:45:22;;;;;;;;;;;;;;;20.64;63.76;99499.13;10206185;28;1977;-74
2023/09/16 23:50:19;;;;;;;;;;;;;;;20.65;63.82;99498.22;10205699;28;796;-74
2023/09/16 23:55:15;;;;;;;;;;;;;;;20.65;63.64;99503.50;10205452;28;795;-74
